This is the latest recevied weather packets stored in our database for station/object CRYC. If no packets are shown the sender has not sent any weather packets the latest 10 day(s).
| Time | Temp. | Humidity | Pressure | Rain* | Wind** | Luminosity | Snow |
|---|---|---|---|---|---|---|---|
| 1777943903 | 17.78° C | - | - | 0 mm | 0 m/s | - | - |
| 1777943295 | 17.78° C | - | - | 0 mm | 0.45 m/s, 166° | - | - |
| 1777942688 | 17.78° C | - | - | 0 mm | 0 m/s | - | - |
| 1777942081 | 18.33° C | - | - | 0 mm | 0 m/s | - | - |
| 1777941475 | 18.33° C | - | - | 0 mm | 0 m/s | - | - |
| 1777940869 | 18.33° C | - | - | 0 mm | 0.45 m/s, 148° | - | - |
| 1777940264 | 18.33° C | - | - | 0 mm | 0 m/s | - | - |
| 1777939654 | 18.89° C | - | - | 0 mm | 0 m/s | - | - |
| 1777939042 | 18.89° C | - | - | 0 mm | 0.89 m/s, 162° | - | - |
| 1777938436 | 19.44° C | - | - | 0 mm | 0 m/s | - | - |
| 1777937829 | 20° C | - | - | 0 mm | 0 m/s | - | - |
| 1777937223 | 20° C | - | - | 0 mm | 0 m/s | - | - |
| 1777936618 | 20.56° C | - | - | 0 mm | 0 m/s | - | - |
| 1777936010 | 21.11° C | - | - | 0 mm | 0.45 m/s, 219° | - | - |
| 1777935409 | 22.22° C | - | - | 0 mm | 1.34 m/s, 260° | - | - |
| 1777934799 | 22.78° C | - | - | 0 mm | 0.45 m/s, 266° | - | - |
| 1777934193 | 23.33° C | - | - | 0 mm | 2.24 m/s, 240° | - | - |
| 1777933580 | 24.44° C | - | - | 0 mm | 1.79 m/s, 158° | - | - |
| 1777932975 | 25° C | - | - | 0 mm | 0.45 m/s, 48° | - | - |
| 1777931766 | 25° C | - | - | 0 mm | 4.92 m/s, 257° | - | - |
| 1777931161 | 25° C | - | - | 0 mm | 4.02 m/s, 277° | - | - |
| 1777930554 | 25.56° C | - | - | 0 mm | 4.92 m/s, 269° | - | - |
| 1777929950 | 25° C | - | - | 0 mm | 2.24 m/s, 240° | - | - |
| 1777929345 | 25.56° C | - | - | 0 mm | 2.24 m/s, 198° | - | - |
| 1777928740 | 25.56° C | - | - | 0 mm | 4.92 m/s, 257° | - | - |
* Rain latest hour (hover to see other rain measurements)
** Current wind speed in m/s (hover to see current wind gust speed)